createdAt,value
2022-08-11T00:08:04.467Z,6
2022-08-11T00:13:04.448Z,6
2022-08-11T00:18:10.198Z,6.8
2022-08-11T00:23:04.858Z,6.6
2022-08-11T00:28:04.526Z,6.6
2022-08-11T00:33:04.501Z,6
2022-08-11T00:38:04.487Z,6.6
2022-08-11T00:43:04.476Z,6.6
2022-08-11T00:48:04.555Z,6
2022-08-11T00:53:04.475Z,6
2022-08-11T00:58:04.509Z,6
2022-08-11T01:03:04.533Z,6
2022-08-11T01:08:04.535Z,6.1
2022-08-11T01:13:08.300Z,6.1
2022-08-11T01:18:04.498Z,6.2
2022-08-11T01:23:07.986Z,6.5
2022-08-11T01:28:04.530Z,7.2
2022-08-11T01:33:04.506Z,7.2
2022-08-11T01:38:04.501Z,8
2022-08-11T01:43:04.521Z,8.1
2022-08-11T01:48:04.594Z,8.1
2022-08-11T01:53:05.730Z,8.9
2022-08-11T01:58:04.539Z,8.5
2022-08-11T02:03:05.513Z,8.1
2022-08-11T02:08:04.496Z,8.1
2022-08-11T02:13:05.530Z,8.5
2022-08-11T02:18:04.502Z,7.4
2022-08-11T02:23:04.533Z,7.8
2022-08-11T02:28:04.541Z,7.4
2022-08-11T02:33:04.517Z,7.4
2022-08-11T02:38:04.557Z,7.8
2022-08-11T02:43:04.512Z,8.1
2022-08-11T02:48:04.561Z,7.8
2022-08-11T02:53:04.536Z,7.8
2022-08-11T02:58:04.537Z,8.1
2022-08-11T03:03:04.502Z,8.1
2022-08-11T03:08:04.538Z,8.2
2022-08-11T03:13:07.587Z,8.6
2022-08-11T03:18:16.784Z,8.6
2022-08-11T03:23:20.532Z,8.6
2022-08-11T03:28:16.902Z,8.6
2022-08-11T03:33:16.831Z,8.6
2022-08-11T03:38:16.846Z,8.6
2022-08-11T03:43:16.814Z,8.2
2022-08-11T03:48:16.809Z,8.1
2022-08-11T03:53:16.802Z,8.1
2022-08-11T03:58:16.771Z,8.1
2022-08-11T04:03:16.844Z,8.1
2022-08-11T04:08:16.796Z,8.1
2022-08-11T04:13:16.767Z,8.1
2022-08-11T04:18:16.760Z,8.6
2022-08-11T04:24:13.580Z,8.6
2022-08-11T04:28:28.363Z,8.6
2022-08-11T04:33:16.827Z,9.3
2022-08-11T04:38:16.817Z,9.4
2022-08-11T04:43:16.831Z,9.4
2022-08-11T04:48:16.860Z,9.5
2022-08-11T04:53:16.817Z,10
2022-08-11T04:58:16.808Z,10.3
2022-08-11T05:03:16.787Z,10.8
2022-08-11T05:08:23.821Z,10.8
2022-08-11T05:13:16.828Z,10.8
2022-08-11T05:18:16.799Z,10.8
2022-08-11T05:23:16.805Z,10.8
2022-08-11T05:28:16.814Z,10.2
2022-08-11T05:33:16.839Z,9.9
2022-08-11T05:38:17.870Z,9.9
2022-08-11T05:43:16.824Z,9.6
2022-08-11T05:48:19.866Z,9.8
2022-08-11T05:53:16.819Z,9.6
2022-08-11T05:58:16.818Z,9.6
2022-08-11T06:03:16.833Z,9.6
2022-08-11T06:08:16.862Z,9.6
2022-08-11T06:13:16.859Z,9.6
2022-08-11T06:18:16.867Z,9.8
2022-08-11T06:23:16.810Z,9.3
2022-08-11T06:28:20.927Z,9.8
2022-08-11T06:33:16.858Z,9.3
2022-08-11T06:38:16.862Z,7.6
2022-08-11T06:43:16.895Z,7.6
2022-08-11T06:48:20.582Z,9.3
2022-08-11T06:53:16.868Z,7.6
2022-08-11T06:58:16.862Z,7.6
2022-08-11T07:03:16.880Z,7.4
2022-08-11T07:08:33.494Z,7.2
2022-08-11T07:13:39.453Z,7.2
2022-08-11T07:18:16.916Z,6.3
2022-08-11T07:23:16.866Z,6.3
2022-08-11T07:28:18.136Z,6.3
2022-08-11T07:34:05.960Z,6.3
2022-08-11T07:38:22.809Z,6.3
2022-08-11T07:43:17.003Z,6.4
2022-08-11T07:48:16.866Z,6.4
2022-08-11T07:53:16.873Z,6.4
2022-08-11T07:58:20.414Z,5.5
2022-08-11T08:03:16.870Z,5.2
2022-08-11T08:08:17.860Z,5.2
2022-08-11T08:13:16.882Z,5
2022-08-11T08:18:25.476Z,5
2022-08-11T08:23:16.906Z,5.2
2022-08-11T08:33:16.919Z,6
2022-08-11T08:38:16.918Z,6.7
2022-08-11T08:43:16.966Z,6.7
2022-08-11T08:48:16.954Z,6.7
2022-08-11T08:53:16.897Z,5.9
2022-08-11T08:58:16.903Z,5.9
2022-08-11T09:03:39.385Z,5.7
2022-08-11T09:08:16.887Z,5.7
2022-08-11T09:13:16.929Z,5.6
2022-08-11T09:18:16.897Z,5.6
2022-08-11T09:24:06.358Z,5.6
2022-08-11T09:28:16.889Z,5.6
2022-08-11T09:33:16.913Z,5.6
2022-08-11T09:38:17.050Z,5.6
2022-08-11T09:43:16.920Z,5.1
2022-08-11T09:48:18.442Z,5.1
2022-08-11T09:53:35.640Z,5.1
2022-08-11T09:58:42.222Z,5.7
2022-08-11T10:03:16.983Z,5.8
2022-08-11T10:08:16.947Z,5.7
2022-08-11T10:13:43.744Z,5.7
2022-08-11T10:18:16.926Z,5.7
2022-08-11T10:23:16.918Z,5.7
2022-08-11T10:28:33.239Z,5.6
2022-08-11T10:33:37.174Z,4.7
2022-08-11T10:38:17.383Z,4.7
2022-08-11T10:44:02.346Z,5.5
2022-08-11T10:48:16.943Z,5.6
2022-08-11T10:53:21.494Z,5.8
2022-08-11T10:58:17.025Z,5.6
2022-08-11T11:03:22.534Z,5.5
2022-08-11T11:08:17.264Z,5.5
2022-08-11T11:13:16.996Z,5.1
2022-08-11T11:18:16.916Z,4.8
2022-08-11T11:23:16.996Z,4.8
2022-08-11T11:28:16.982Z,4
2022-08-11T11:33:16.963Z,4
2022-08-11T11:38:17.067Z,3.7
2022-08-11T11:43:16.955Z,4
2022-08-11T11:48:16.992Z,4.8
2022-08-11T11:53:16.949Z,4.8
2022-08-11T11:58:20.030Z,4
2022-08-11T12:03:17.044Z,4.8
2022-08-11T12:08:16.997Z,4
2022-08-11T12:13:17.022Z,4.2
2022-08-11T12:18:17.019Z,4
2022-08-11T12:23:17.021Z,3.9
2022-08-11T12:28:17.059Z,3.9
2022-08-11T12:33:23.982Z,3.9
2022-08-11T12:38:21.457Z,3.6
2022-08-11T12:43:20.910Z,3.8
2022-08-11T12:49:00.202Z,3.8
2022-08-11T12:53:17.025Z,3.8
2022-08-11T12:58:16.997Z,3.7
2022-08-11T13:03:16.987Z,3.7
2022-08-11T13:08:16.994Z,3.4
2022-08-11T13:13:53.123Z,3.4
2022-08-11T13:18:16.988Z,3.4
2022-08-11T13:23:16.964Z,3.4
2022-08-11T13:28:16.988Z,3.7
2022-08-11T13:33:17.001Z,4.4
2022-08-11T13:38:20.494Z,4.4
2022-08-11T13:43:17.027Z,4.4
2022-08-11T13:48:18.024Z,4.4
2022-08-11T13:53:17.002Z,3.9
2022-08-11T13:58:39.539Z,3.9
2022-08-11T14:03:17.186Z,3.6
2022-08-11T14:13:17.003Z,3.9
2022-08-11T14:18:17.065Z,3.9
2022-08-11T14:23:17.004Z,4.3
2022-08-11T14:28:32.867Z,4.3
2022-08-11T14:33:20.464Z,4.7
2022-08-11T14:38:17.056Z,4.9
2022-08-11T14:43:17.015Z,4.7
2022-08-11T14:48:17.080Z,4.7
2022-08-11T14:53:20.061Z,4.7
2022-08-11T14:58:17.012Z,4.7
2022-08-11T15:03:17.114Z,5.2
2022-08-11T15:08:20.503Z,4.7
2022-08-11T15:13:17.066Z,4.7
2022-08-11T15:18:17.110Z,4.7
2022-08-11T15:23:17.181Z,4.7
2022-08-11T15:28:17.148Z,4.7
2022-08-11T15:33:17.100Z,4.7
2022-08-11T15:38:17.102Z,4.7
2022-08-11T15:43:17.079Z,4.7
2022-08-11T15:48:17.080Z,4.7
2022-08-11T15:53:17.914Z,4.7
2022-08-11T15:58:17.060Z,5
2022-08-11T16:03:17.090Z,5
2022-08-11T16:08:22.013Z,5
2022-08-11T16:13:17.048Z,5
2022-08-11T16:18:17.064Z,5
2022-08-11T16:23:18.058Z,5.2
2022-08-11T16:28:17.139Z,5.2
2022-08-11T16:33:22.906Z,5.6
2022-08-11T16:38:17.113Z,5.6
2022-08-11T16:43:17.104Z,4.3
2022-08-11T16:48:32.986Z,3.6
2022-08-11T16:53:17.099Z,3.6
2022-08-11T16:58:17.076Z,3.6
2022-08-11T17:03:17.116Z,3.6
2022-08-11T17:08:18.079Z,3.4
2022-08-11T17:13:17.097Z,3.6
2022-08-11T17:18:17.083Z,3.4
2022-08-11T17:23:17.090Z,3.4
2022-08-11T17:28:17.091Z,3.6
2022-08-11T17:33:17.142Z,3.4
2022-08-11T17:38:17.176Z,3.9
2022-08-11T17:43:17.201Z,3.9
2022-08-11T17:48:17.108Z,4.9
2022-08-11T17:53:17.122Z,4.9
2022-08-11T17:58:17.096Z,4.9
2022-08-11T18:03:17.166Z,4.9
2022-08-11T18:08:17.111Z,4.9
2022-08-11T18:13:17.168Z,4.4
2022-08-11T18:18:20.141Z,4.9
2022-08-11T18:23:17.137Z,4.4
2022-08-11T18:28:17.131Z,5.2
2022-08-11T18:33:45.398Z,3.6
2022-08-11T18:38:17.184Z,3.6
2022-08-11T18:43:17.261Z,3.8
2022-08-11T18:48:18.167Z,5.2
2022-08-11T18:53:17.118Z,5.3
2022-08-11T18:58:17.114Z,6.4
2022-08-11T19:03:17.163Z,6.4
2022-08-11T19:08:17.148Z,6.4
2022-08-11T19:13:17.125Z,9.1
2022-08-11T19:18:17.200Z,6.4
2022-08-11T19:23:17.135Z,5.7
2022-08-11T19:28:17.201Z,5.7
2022-08-11T19:33:22.894Z,5.7
2022-08-11T19:38:17.202Z,5.8
2022-08-11T19:43:23.969Z,5.8
2022-08-11T19:48:31.573Z,5.7
2022-08-11T19:53:18.163Z,5.8
2022-08-11T19:58:17.136Z,6.1
2022-08-11T20:03:17.122Z,5.8
2022-08-11T20:08:20.202Z,6.1
2022-08-11T20:13:21.222Z,5.2
2022-08-11T20:18:17.133Z,6.1
2022-08-11T20:23:17.186Z,6.1
2022-08-11T20:28:17.155Z,6.1
2022-08-11T20:33:17.156Z,5.8
2022-08-11T20:38:17.203Z,5.8
2022-08-11T20:44:05.221Z,5.8
2022-08-11T20:48:18.189Z,6.5
2022-08-11T20:53:18.197Z,5.8
2022-08-11T20:58:23.045Z,6.5
2022-08-11T21:03:36.010Z,5.7
2022-08-11T21:08:17.176Z,5.7
2022-08-11T21:13:26.612Z,6
2022-08-11T21:18:27.614Z,5.6
2022-08-11T21:23:23.648Z,5.3
2022-08-11T21:28:17.207Z,5.3
2022-08-11T21:33:17.230Z,5.3
2022-08-11T21:38:17.242Z,5.3
2022-08-11T21:43:17.225Z,5.6
2022-08-11T21:48:20.297Z,5.6
2022-08-11T21:53:17.181Z,6.1
2022-08-11T21:58:17.186Z,6.7
2022-08-11T22:03:20.262Z,6.7
2022-08-11T22:08:17.190Z,6.5
2022-08-11T22:13:17.247Z,6.5
2022-08-11T22:18:17.365Z,6.1
2022-08-11T22:23:22.950Z,5.8
2022-08-11T22:28:17.220Z,5.3
2022-08-11T22:33:17.158Z,5.3
2022-08-11T22:38:17.240Z,5.3
2022-08-11T22:43:17.233Z,5.3
2022-08-11T22:48:17.215Z,5.1
2022-08-11T22:53:17.204Z,4.8
2022-08-11T23:03:34.409Z,5
2022-08-11T23:08:17.233Z,5
2022-08-11T23:13:22.200Z,5
2022-08-11T23:18:17.234Z,5
2022-08-11T23:23:17.243Z,5.1
2022-08-11T23:28:17.211Z,5.1
2022-08-11T23:33:17.256Z,5.2
2022-08-11T23:38:17.227Z,5.4
2022-08-11T23:43:17.280Z,5.4
2022-08-11T23:48:17.245Z,5.5
2022-08-11T23:53:17.215Z,5.6
2022-08-11T23:58:17.263Z,5.8
